Darstellungsparameter: Aktuell verwendete Einstellungen:
Skalierung der Graphiken ... ?
xyx+y,   Skalierungsfaktor:      Skalierung: Modus: x, Faktor: 1
Darstellungszeitraum ... ?
Vom - - bis: - -   Zeitraum: 31.05.2004 - 06.06.2004
Min/Max/Avg-Anzeige ... ?
Zeige MMA aktuell
Zeige MMA Monat
Zeige MMA alles
Zeige --A aktuell
Zeige --A Monat
Zeige --A alles
Keine MMA-Anzeige
MMA:
Keine MMA-Graphiken
MMA-Basis: 31.05.2004 - 06.06.2004
Quicknavigation für Darstellung... ?
Tage:      1T, 2T, 3T, 5T -1T -2T -3T -5T +1T +2T +3T +5T
Wochen: 1W, 2W, 3W -1W -2W -3W +1W +2W +3W
Monate: 1M, 3M, 6M -1M -3M -6M +1M +3M +6M
Jahre:    1J, 3J, 5J, 10J -1J -3J -5J -10J +1J +3J +5J +10J
Nutze für die Darstellung ... ?
Originaldaten oder Mittelwerte auf ...
Stundenbasis Tagesbasis Wochenbasis
Monatsbasis Jahresbasis      Datenbasis: Original-Daten
Darstellen als:
Statistik (Auto) Statistik J:M      Darstellung:
Zur Graphik,    zurück zur Übersicht aller Sensoren.
 
Tabellarische Datenbersicht: ?
 
Sensor: Nr:Datum:Temp:Abs-Feuchte:Windchill:Wind:
Aussen-T/F 1 31-05-2004 00:07:01 18 C 9.06 g/m*3 18 C 0 km/h
2 31-05-2004 00:19:01 17.6 C 10.05 g/m*3 17.6 C 0 km/h
3 31-05-2004 00:31:01 17 C 9.98 g/m*3 17 C 0 km/h
4 31-05-2004 00:43:01 16.6 C 10.45 g/m*3 16.6 C 0 km/h
5 31-05-2004 00:55:01 16.2 C 10.76 g/m*3 16.2 C 0 km/h
6 31-05-2004 01:07:01 15.9 C 11.24 g/m*3 15.9 C 0 km/h
7 31-05-2004 01:19:01 15.4 C 10.9 g/m*3 15.4 C 0 km/h
8 31-05-2004 01:31:01 15.2 C 10.9 g/m*3 15.2 C 0 km/h
9 31-05-2004 01:43:01 15 C 10.9 g/m*3 15 C 0 km/h
10 31-05-2004 01:55:01 14.7 C 10.95 g/m*3 14.7 C 0 km/h
11 31-05-2004 02:07:01 14.7 C 11.08 g/m*3 14.7 C 0 km/h
12 31-05-2004 02:19:01 14.3 C 10.93 g/m*3 14.3 C 0 km/h
13 31-05-2004 02:31:01 14.1 C 10.92 g/m*3 14.1 C 0 km/h
14 31-05-2004 02:43:01 14.1 C 11.04 g/m*3 14.1 C 0 km/h
15 31-05-2004 02:56:02 13.7 C 10.78 g/m*3 13.7 C 0 km/h
16 31-05-2004 03:08:02 13.7 C 10.89 g/m*3 13.7 C 0 km/h
17 31-05-2004 03:20:02 13.9 C 11.15 g/m*3 13.9 C 0 km/h
18 31-05-2004 03:32:01 13.7 C 11.01 g/m*3 13.7 C 0 km/h
19 31-05-2004 03:44:01 13.7 C 11.01 g/m*3 13.7 C 0 km/h
20 31-05-2004 03:56:01 13.8 C 11.08 g/m*3 13.8 C 0 km/h
21 31-05-2004 04:08:01 13.8 C 11.2 g/m*3 13.8 C 0 km/h
22 31-05-2004 04:20:01 14.1 C 11.29 g/m*3 14.1 C 0 km/h
23 31-05-2004 04:32:01 13.7 C 11.13 g/m*3 13.7 C 0 km/h
24 31-05-2004 04:44:01 13.7 C 11.13 g/m*3 13.7 C 0 km/h
25 31-05-2004 04:56:01 13.7 C 11.13 g/m*3 13.7 C 0 km/h
Sensor: Nr:Datum:Temp:Abs-Feuchte:Windchill:Wind:
Aussen-T/F 26 31-05-2004 05:08:01 13.8 C 11.2 g/m*3 13.8 C 0 km/h
27 31-05-2004 05:20:01 13.8 C 11.2 g/m*3 13.8 C 0 km/h
28 31-05-2004 05:32:01 13.8 C 11.2 g/m*3 13.8 C 0 km/h
29 31-05-2004 05:44:01 13.8 C 11.2 g/m*3 13.8 C 0 km/h
30 31-05-2004 05:56:01 13.6 C 11.06 g/m*3 13.6 C 0 km/h
31 31-05-2004 06:08:01 13 C 10.66 g/m*3 13 C 0 km/h
32 31-05-2004 06:20:01 12.7 C 10.35 g/m*3 12.7 C 0 km/h
33 31-05-2004 06:32:01 12.6 C 10.29 g/m*3 12.6 C 0 km/h
34 31-05-2004 06:44:01 12.5 C 10.22 g/m*3 12.5 C 0 km/h
35 31-05-2004 06:56:01 12 C 9.91 g/m*3 12 C 0 km/h
36 31-05-2004 07:08:01 12.2 C 10.14 g/m*3 12.2 C 0 km/h
37 31-05-2004 07:20:01 12.1 C 10.08 g/m*3 12.1 C 0 km/h
38 31-05-2004 07:32:01 12.2 C 10.14 g/m*3 12.2 C 0 km/h
39 31-05-2004 07:44:01 12.2 C 10.14 g/m*3 12.2 C 0 km/h
40 31-05-2004 07:56:01 12.2 C 10.14 g/m*3 12.2 C 0 km/h
41 31-05-2004 08:08:01 12.6 C 10.4 g/m*3 12.6 C 0 km/h
42 31-05-2004 08:20:01 13 C 10.66 g/m*3 13 C 0 km/h
43 31-05-2004 08:32:01 13.5 C 10.88 g/m*3 13.5 C 0 km/h
44 31-05-2004 08:44:01 13.7 C 10.78 g/m*3 13.7 C 0 km/h
45 31-05-2004 08:56:01 14.1 C 10.68 g/m*3 14.1 C 0 km/h
46 31-05-2004 09:08:01 14.3 C 10.44 g/m*3 14.3 C 0 km/h
47 31-05-2004 09:20:01 14.8 C 10.51 g/m*3 14.8 C 0 km/h
48 31-05-2004 09:32:01 15.4 C 10.12 g/m*3 15.4 C 0 km/h
49 31-05-2004 09:44:01 15.9 C 10.43 g/m*3 15.9 C 0 km/h
50 31-05-2004 09:56:01 16.2 C 10.2 g/m*3 16.2 C 0 km/h
Sensor: Nr:Datum:Temp:Abs-Feuchte:Windchill:Wind:
Aussen-T/F 51 31-05-2004 10:08:01 15.6 C 10.37 g/m*3 15.6 C 0 km/h
52 31-05-2004 10:20:01 16.4 C 10.75 g/m*3 16.4 C 0 km/h
53 31-05-2004 10:32:01 16.9 C 10.36 g/m*3 16.9 C 0 km/h
54 31-05-2004 10:44:01 16.9 C 10.36 g/m*3 16.9 C 0 km/h
55 31-05-2004 10:56:02 16.9 C 10.36 g/m*3 16.9 C 0 km/h
56 31-05-2004 11:08:01 16.9 C 10.36 g/m*3 16.9 C 0 km/h
57 31-05-2004 11:20:01 16.9 C 10.36 g/m*3 16.9 C 0 km/h
58 31-05-2004 11:32:00 16.9 C 10.36 g/m*3 16.9 C 0 km/h
59 31-05-2004 11:44:00 16.9 C 10.36 g/m*3 16.9 C 0 km/h
60 31-05-2004 11:56:02 16.9 C 10.36 g/m*3 16.9 C 0 km/h
61 31-05-2004 12:08:02 16.2 C 10.62 g/m*3 16.2 C 0 km/h
62 31-05-2004 12:20:02 17.5 C 12.08 g/m*3 17.5 C 0 km/h
63 31-05-2004 12:32:02 18.8 C 12.24 g/m*3 18.8 C 0 km/h
64 31-05-2004 12:44:02 19.5 C 10.91 g/m*3 19.5 C 0 km/h
65 31-05-2004 12:56:02 15.6 C 9.71 g/m*3 15.6 C 0 km/h
66 31-05-2004 13:08:02 16.6 C 11.02 g/m*3 16.6 C 0 km/h
67 31-05-2004 13:20:02 16.7 C 10.37 g/m*3 16.7 C 0 km/h
68 31-05-2004 13:32:02 15.1 C 10.06 g/m*3 15.1 C 0 km/h
69 31-05-2004 13:44:02 14.9 C 10.71 g/m*3 14.9 C 0 km/h
70 31-05-2004 13:56:01 14.6 C 10.39 g/m*3 14.6 C 0 km/h
71 31-05-2004 14:08:01 15 C 10.51 g/m*3 15 C 0 km/h
72 31-05-2004 14:20:01 16.3 C 10.82 g/m*3 16.3 C 0 km/h
73 31-05-2004 14:32:01 16.2 C 10.2 g/m*3 16.2 C 0 km/h
74 31-05-2004 14:44:01 16.5 C 10.95 g/m*3 16.5 C 0 km/h
75 31-05-2004 14:56:01 17.5 C 10.88 g/m*3 17.5 C 0 km/h
Sensor: Nr:Datum:Temp:Abs-Feuchte:Windchill:Wind:
Aussen-T/F 76 31-05-2004 15:08:01 17.5 C 10.88 g/m*3 17.5 C 0 km/h
77 31-05-2004 15:20:01 17.5 C 10.88 g/m*3 17.5 C 0 km/h
78 31-05-2004 15:32:01 17.5 C 10.88 g/m*3 17.5 C 0 km/h
79 31-05-2004 15:44:01 17.5 C 10.88 g/m*3 17.5 C 0 km/h
80 31-05-2004 15:56:01 17.5 C 10.88 g/m*3 17.5 C 0 km/h
81 31-05-2004 16:08:01 17.5 C 10.88 g/m*3 17.5 C 0 km/h
82 31-05-2004 16:20:01 17.5 C 10.88 g/m*3 17.5 C 0 km/h
83 31-05-2004 16:32:01 19.1 C 11.15 g/m*3 19.1 C 0 km/h
84 31-05-2004 16:44:01 19.9 C 8.08 g/m*3 19.9 C 0 km/h
85 31-05-2004 16:56:01 21.3 C 8.39 g/m*3 21.3 C 0 km/h
86 31-05-2004 17:08:01 21.5 C 7.17 g/m*3 21.5 C 0 km/h
87 31-05-2004 17:20:01 21.5 C 7.17 g/m*3 21.5 C 0 km/h
88 31-05-2004 17:32:01 20.8 C 8.33 g/m*3 20.8 C 0 km/h
89 31-05-2004 17:44:01 22.6 C 6.43 g/m*3 22.6 C 0 km/h
90 31-05-2004 17:56:01 24.4 C 6.9 g/m*3 24.4 C 0 km/h
91 31-05-2004 18:08:01 24.3 C 8.63 g/m*3 24.3 C 0 km/h
92 31-05-2004 18:20:01 24.4 C 8.68 g/m*3 24.4 C 0 km/h
93 31-05-2004 18:32:01 23.5 C 6.77 g/m*3 23.5 C 0 km/h
94 31-05-2004 18:44:01 23.1 C 7.23 g/m*3 23.1 C 0 km/h
95 31-05-2004 18:56:01 21.7 C 9.16 g/m*3 21.7 C 0 km/h
96 31-05-2004 19:08:01 20.1 C 8.87 g/m*3 20.1 C 0 km/h
97 31-05-2004 19:20:01 19.2 C 8.9 g/m*3 19.2 C 0 km/h
98 31-05-2004 19:32:01 18.3 C 9.07 g/m*3 18.3 C 0 km/h
99 31-05-2004 19:44:01 17.6 C 9 g/m*3 17.6 C 0 km/h
100 31-05-2004 19:56:01 17.1 C 8.88 g/m*3 17.1 C 0 km/h
Sensor: Nr:Datum:Temp:Abs-Feuchte:Windchill:Wind:
Aussen-T/F 101 31-05-2004 20:08:01 17 C 8.97 g/m*3 17 C 0 km/h
102 31-05-2004 20:20:01 15.6 C 9.84 g/m*3 15.6 C 0 km/h
103 31-05-2004 20:32:01 14.4 C 10.26 g/m*3 14.4 C 0 km/h
104 31-05-2004 20:44:01 14.2 C 10.5 g/m*3 14.2 C 0 km/h
105 31-05-2004 20:56:01 14 C 10.49 g/m*3 14 C 0 km/h
106 31-05-2004 21:08:01 11.8 C 9.16 g/m*3 11.8 C 0 km/h
107 31-05-2004 21:20:01 11.8 C 9.26 g/m*3 11.8 C 0 km/h
108 31-05-2004 21:32:01 11.7 C 9.41 g/m*3 11.7 C 0 km/h
109 31-05-2004 21:44:01 11.6 C 9.46 g/m*3 11.6 C 0 km/h
110 31-05-2004 21:56:01 11.5 C 9.5 g/m*3 11.5 C 0 km/h
111 31-05-2004 22:08:01 11.5 C 9.5 g/m*3 11.5 C 0 km/h
112 31-05-2004 22:20:01 11.4 C 9.44 g/m*3 11.4 C 0 km/h
113 31-05-2004 22:32:01 11.4 C 9.44 g/m*3 11.4 C 0 km/h
114 31-05-2004 22:44:01 11.2 C 9.33 g/m*3 11.2 C 0 km/h
115 31-05-2004 22:56:01 11.2 C 9.33 g/m*3 11.2 C 0 km/h
116 31-05-2004 23:08:01 11.3 C 9.49 g/m*3 11.3 C 0 km/h
117 31-05-2004 23:20:01 11.3 C 9.49 g/m*3 11.3 C 0 km/h
118 31-05-2004 23:32:01 11.2 C 9.43 g/m*3 11.2 C 0 km/h
119 31-05-2004 23:44:01 11.1 C 9.37 g/m*3 11.1 C 0 km/h
120 31-05-2004 23:56:01 11.2 C 9.43 g/m*3 11.2 C 0 km/h
121 01-06-2004 00:08:01 11.2 C 9.43 g/m*3 11.2 C 0 km/h
122 01-06-2004 00:20:01 11.2 C 9.43 g/m*3 11.2 C 0 km/h
123 01-06-2004 00:32:01 11.2 C 9.43 g/m*3 11.2 C 0 km/h
124 01-06-2004 00:44:01 11 C 9.31 g/m*3 11 C 0 km/h
125 01-06-2004 00:56:01 11 C 9.31 g/m*3 11 C 0 km/h
Sensor: Nr:Datum:Temp:Abs-Feuchte:Windchill:Wind:
Aussen-T/F 126 01-06-2004 01:08:01 10.9 C 9.25 g/m*3 10.9 C 0 km/h
127 01-06-2004 01:20:01 10.8 C 9.19 g/m*3 10.8 C 0 km/h
128 01-06-2004 01:32:01 10.8 C 9.19 g/m*3 10.8 C 0 km/h
129 01-06-2004 01:44:01 11 C 9.31 g/m*3 11 C 0 km/h
130 01-06-2004 01:56:01 10.8 C 9.19 g/m*3 10.8 C 0 km/h
131 01-06-2004 02:08:01 10.8 C 9.19 g/m*3 10.8 C 0 km/h
132 01-06-2004 02:20:01 11.1 C 9.27 g/m*3 11.1 C 0 km/h
133 01-06-2004 02:32:01 11.1 C 9.27 g/m*3 11.1 C 0 km/h
134 01-06-2004 02:44:01 10.9 C 9.25 g/m*3 10.9 C 0 km/h
135 01-06-2004 02:57:02 10.9 C 9.25 g/m*3 10.9 C 0 km/h
136 01-06-2004 03:09:02 10.8 C 9.09 g/m*3 10.8 C 0 km/h
137 01-06-2004 03:21:02 10.8 C 9.09 g/m*3 10.8 C 0 km/h
138 01-06-2004 03:33:01 10.8 C 9.09 g/m*3 10.8 C 0 km/h
139 01-06-2004 03:45:01 10.8 C 9.09 g/m*3 10.8 C 0 km/h
140 01-06-2004 03:57:01 10.8 C 9.09 g/m*3 10.8 C 0 km/h
141 01-06-2004 04:09:01 10.8 C 9.09 g/m*3 10.8 C 0 km/h
142 01-06-2004 04:21:01 10.8 C 9.09 g/m*3 10.8 C 0 km/h
143 01-06-2004 04:33:01 10.6 C 8.98 g/m*3 10.6 C 0 km/h
144 01-06-2004 04:45:01 10.5 C 8.92 g/m*3 10.5 C 0 km/h
145 01-06-2004 04:57:01 10.5 C 8.92 g/m*3 10.5 C 0 km/h
146 01-06-2004 05:09:01 10.5 C 8.92 g/m*3 10.5 C 0 km/h
147 01-06-2004 05:21:01 10.5 C 8.92 g/m*3 10.5 C 0 km/h
148 01-06-2004 05:33:01 9.8 C 8.63 g/m*3 9.8 C 0 km/h
149 01-06-2004 05:45:01 9.8 C 8.63 g/m*3 9.8 C 0 km/h
150 01-06-2004 05:57:01 9.8 C 8.63 g/m*3 9.8 C 0 km/h
Sensor: Nr:Datum:Temp:Abs-Feuchte:Windchill:Wind:
Aussen-T/F 151 01-06-2004 06:09:02 9.7 C 8.57 g/m*3 9.7 C 0 km/h
152 01-06-2004 06:21:01 9.8 C 8.72 g/m*3 9.8 C 0 km/h
153 01-06-2004 06:33:02 9.9 C 8.78 g/m*3 9.9 C 0 km/h
154 01-06-2004 06:45:01 10.1 C 8.79 g/m*3 10.1 C 0 km/h
155 01-06-2004 06:57:01 10.2 C 8.85 g/m*3 10.2 C 0 km/h
156 01-06-2004 07:09:02 10.6 C 9.08 g/m*3 10.6 C 0 km/h
157 01-06-2004 07:21:01 11.1 C 9.27 g/m*3 11.1 C 0 km/h
158 01-06-2004 07:33:02 11.1 C 9.27 g/m*3 11.1 C 0 km/h
159 01-06-2004 07:45:02 11.3 C 9.28 g/m*3 11.3 C 0 km/h
160 01-06-2004 07:57:02 11.9 C 9.43 g/m*3 11.9 C 0 km/h
161 01-06-2004 08:09:02 12.1 C 9.12 g/m*3 12.1 C 0 km/h
162 01-06-2004 08:21:02 11.9 C 9 g/m*3 11.9 C 0 km/h
163 01-06-2004 08:33:02 12 C 9.06 g/m*3 12 C 0 km/h
164 01-06-2004 08:45:02 12.4 C 9.29 g/m*3 12.4 C 0 km/h
165 01-06-2004 08:57:02 12.5 C 9.24 g/m*3 12.5 C 0 km/h
166 01-06-2004 09:09:02 12.8 C 9.52 g/m*3 12.8 C 0 km/h
167 01-06-2004 09:21:02 13.2 C 9.53 g/m*3 13.2 C 0 km/h
168 01-06-2004 09:33:01 13.8 C 9.77 g/m*3 13.8 C 0 km/h
169 01-06-2004 09:45:01 13.8 C 9.77 g/m*3 13.8 C 0 km/h
170 01-06-2004 09:57:01 13.8 C 9.77 g/m*3 13.8 C 0 km/h
171 01-06-2004 10:09:01 13.8 C 9.77 g/m*3 13.8 C 0 km/h
172 01-06-2004 10:21:01 13.8 C 9.77 g/m*3 13.8 C 0 km/h
173 01-06-2004 10:33:01 16.5 C 9.97 g/m*3 16.5 C 0 km/h
174 01-06-2004 10:45:01 16.5 C 9.97 g/m*3 16.5 C 0 km/h
175 01-06-2004 10:57:01 18.3 C 10.94 g/m*3 18.3 C 0 km/h
Sensor: Nr:Datum:Temp:Abs-Feuchte:Windchill:Wind:
Aussen-T/F 176 01-06-2004 11:09:01 18.4 C 9.91 g/m*3 18.4 C 0 km/h
177 01-06-2004 11:21:01 18.1 C 10.51 g/m*3 18.1 C 0 km/h
178 01-06-2004 11:33:01 18.4 C 10.22 g/m*3 18.4 C 0 km/h
179 01-06-2004 11:45:01 19.7 C 9 g/m*3 19.7 C 0 km/h
180 01-06-2004 11:57:01 20.4 C 8.14 g/m*3 20.4 C 0 km/h
181 01-06-2004 12:09:01 21.1 C 7.55 g/m*3 21.1 C 0 km/h
182 01-06-2004 12:21:01 21.1 C 7.55 g/m*3 21.1 C 0 km/h
183 01-06-2004 12:33:01 21 C 8.61 g/m*3 21 C 0 km/h
184 01-06-2004 12:45:01 21.1 C 9.4 g/m*3 21.1 C 0 km/h
185 01-06-2004 12:57:01 22.8 C 9.14 g/m*3 22.8 C 0 km/h
186 01-06-2004 13:09:01 22.8 C 9.14 g/m*3 22.8 C 0 km/h
187 01-06-2004 13:21:01 25.5 C 7.34 g/m*3 25.5 C 0 km/h
188 01-06-2004 13:33:01 22 C 6.99 g/m*3 22 C 0 km/h
189 01-06-2004 13:45:01 22 C 6.99 g/m*3 22 C 0 km/h
190 01-06-2004 13:57:01 22 C 6.99 g/m*3 22 C 0 km/h
191 01-06-2004 14:09:01 24.5 C 6.71 g/m*3 24.5 C 0 km/h
192 01-06-2004 14:21:01 24.5 C 6.71 g/m*3 24.5 C 0 km/h
193 01-06-2004 14:33:01 25 C 7.14 g/m*3 25 C 0 km/h
194 01-06-2004 14:47:01 25 C 7.14 g/m*3 25 C 0 km/h
195 01-06-2004 14:59:01 25 C 7.14 g/m*3 25 C 0 km/h
196 01-06-2004 15:11:01 25 C 7.14 g/m*3 25 C 0 km/h
197 01-06-2004 15:23:01 25 C 7.14 g/m*3 25 C 0 km/h
198 01-06-2004 15:35:01 25 C 7.14 g/m*3 25 C 0 km/h
199 01-06-2004 15:59:01 23.6 C 6.59 g/m*3 23.6 C 0 km/h
200 01-06-2004 16:11:01 23.6 C 6.59 g/m*3 23.6 C 0 km/h
Sensor: Nr:Datum:Temp:Abs-Feuchte:Windchill:Wind:
Aussen-T/F 201 01-06-2004 16:23:01 23.6 C 6.59 g/m*3 23.6 C 0 km/h
202 01-06-2004 16:35:01 23.6 C 6.59 g/m*3 23.6 C 0 km/h
203 01-06-2004 16:47:01 23.6 C 6.59 g/m*3 23.6 C 0 km/h
204 01-06-2004 16:59:01 23.6 C 6.59 g/m*3 23.6 C 0 km/h
205 01-06-2004 17:11:01 23.6 C 6.59 g/m*3 23.6 C 0 km/h
206 01-06-2004 17:23:01 23.6 C 6.59 g/m*3 23.6 C 0 km/h
207 01-06-2004 17:35:00 23.6 C 6.59 g/m*3 23.6 C 0 km/h
208 01-06-2004 17:47:01 23.6 C 6.59 g/m*3 23.6 C 0 km/h
209 01-06-2004 17:59:01 23.4 C 7.57 g/m*3 23.4 C 0 km/h
210 01-06-2004 18:11:01 23.4 C 7.57 g/m*3 23.4 C 0 km/h
211 01-06-2004 18:23:01 21.1 C 9.58 g/m*3 21.1 C 0 km/h
212 01-06-2004 18:35:01 21.1 C 9.58 g/m*3 21.1 C 0 km/h
213 01-06-2004 18:47:01 21.1 C 9.58 g/m*3 21.1 C 0 km/h
214 01-06-2004 18:59:01 21.1 C 9.58 g/m*3 21.1 C 0 km/h
215 01-06-2004 19:11:01 21.1 C 9.58 g/m*3 21.1 C 0 km/h
216 01-06-2004 19:23:01 21.1 C 9.58 g/m*3 21.1 C 0 km/h
217 01-06-2004 19:35:01 21.1 C 9.58 g/m*3 21.1 C 0 km/h
218 01-06-2004 19:47:01 21.1 C 9.58 g/m*3 21.1 C 0 km/h
219 01-06-2004 19:59:01 21.1 C 9.58 g/m*3 21.1 C 0 km/h
220 01-06-2004 20:11:01 21.1 C 9.58 g/m*3 21.1 C 0 km/h
221 01-06-2004 20:23:02 21.1 C 9.58 g/m*3 21.1 C 0 km/h
222 01-06-2004 20:35:02 20 C 9.33 g/m*3 20 C 0 km/h
223 01-06-2004 20:47:02 19 C 8.96 g/m*3 19 C 0 km/h
224 01-06-2004 20:59:02 18.4 C 9.28 g/m*3 18.4 C 0 km/h
225 01-06-2004 21:11:01 17.7 C 8.9 g/m*3 17.7 C 0 km/h
Sensor: Nr:Datum:Temp:Abs-Feuchte:Windchill:Wind:
Aussen-T/F 226 01-06-2004 21:23:01 16.9 C 8.77 g/m*3 16.9 C 0 km/h
227 01-06-2004 21:35:01 16.4 C 8.65 g/m*3 16.4 C 0 km/h
228 01-06-2004 21:47:01 16 C 8.58 g/m*3 16 C 0 km/h
229 01-06-2004 21:59:01 15.6 C 8.91 g/m*3 15.6 C 0 km/h
230 01-06-2004 22:11:01 15.6 C 8.91 g/m*3 15.6 C 0 km/h
231 01-06-2004 22:23:01 15.5 C 8.99 g/m*3 15.5 C 0 km/h
232 01-06-2004 22:35:01 15.2 C 9.09 g/m*3 15.2 C 0 km/h
233 01-06-2004 22:47:01 15 C 9.1 g/m*3 15 C 0 km/h
234 01-06-2004 22:59:01 14.7 C 9.07 g/m*3 14.7 C 0 km/h
235 01-06-2004 23:11:01 14.4 C 9.02 g/m*3 14.4 C 0 km/h
236 01-06-2004 23:23:01 14.3 C 8.97 g/m*3 14.3 C 0 km/h
237 01-06-2004 23:35:01 14.1 C 8.74 g/m*3 14.1 C 0 km/h
238 01-06-2004 23:47:02 13.8 C 8.7 g/m*3 13.8 C 0 km/h
239 01-06-2004 23:59:02 13.7 C 8.76 g/m*3 13.7 C 0 km/h
240 02-06-2004 00:11:02 13.4 C 8.72 g/m*3 13.4 C 0 km/h
241 02-06-2004 00:23:02 13.2 C 8.73 g/m*3 13.2 C 0 km/h
242 02-06-2004 00:35:01 13 C 8.73 g/m*3 13 C 0 km/h
243 02-06-2004 00:47:02 12.8 C 8.85 g/m*3 12.8 C 0 km/h
244 02-06-2004 00:59:02 12.6 C 8.74 g/m*3 12.6 C 0 km/h
245 02-06-2004 01:11:02 12.4 C 8.63 g/m*3 12.4 C 0 km/h
246 02-06-2004 01:23:02 12.2 C 8.52 g/m*3 12.2 C 0 km/h
247 02-06-2004 01:35:02 12.2 C 8.52 g/m*3 12.2 C 0 km/h
248 02-06-2004 01:47:02 12.3 C 8.58 g/m*3 12.3 C 0 km/h
249 02-06-2004 01:59:02 12.2 C 8.74 g/m*3 12.2 C 0 km/h
250 02-06-2004 02:11:02 12.2 C 8.74 g/m*3 12.2 C 0 km/h
Sensor: Nr:Datum:Temp:Abs-Feuchte:Windchill:Wind:
Aussen-T/F 251 02-06-2004 02:23:02 12 C 8.63 g/m*3 12 C 0 km/h
252 02-06-2004 02:35:02 11.8 C 8.63 g/m*3 11.8 C 0 km/h
253 02-06-2004 02:48:02 11.7 C 8.68 g/m*3 11.7 C 0 km/h
254 02-06-2004 03:00:02 11.4 C 8.52 g/m*3 11.4 C 0 km/h
255 02-06-2004 03:12:02 11.3 C 8.47 g/m*3 11.3 C 0 km/h
256 02-06-2004 03:24:02 11.1 C 8.46 g/m*3 11.1 C 0 km/h
257 02-06-2004 03:36:01 10.9 C 8.45 g/m*3 10.9 C 0 km/h
258 02-06-2004 03:48:01 10.8 C 8.4 g/m*3 10.8 C 0 km/h
259 02-06-2004 04:00:01 10.7 C 8.45 g/m*3 10.7 C 0 km/h
260 02-06-2004 04:12:01 10.7 C 8.45 g/m*3 10.7 C 0 km/h
261 02-06-2004 04:24:01 10.6 C 8.39 g/m*3 10.6 C 0 km/h
262 02-06-2004 04:36:01 10.4 C 8.29 g/m*3 10.4 C 0 km/h
263 02-06-2004 04:48:01 10.3 C 8.24 g/m*3 10.3 C 0 km/h
264 02-06-2004 05:00:01 10.2 C 8.28 g/m*3 10.2 C 0 km/h
265 02-06-2004 05:12:01 10.1 C 8.13 g/m*3 10.1 C 0 km/h
266 02-06-2004 05:24:00 10 C 8.08 g/m*3 10 C 0 km/h
267 02-06-2004 05:36:00 9.9 C 8.22 g/m*3 9.9 C 0 km/h
268 02-06-2004 05:48:01 9.8 C 8.26 g/m*3 9.8 C 0 km/h
269 02-06-2004 06:00:01 9.8 C 8.35 g/m*3 9.8 C 0 km/h
270 02-06-2004 06:12:01 9.9 C 8.4 g/m*3 9.9 C 0 km/h
271 02-06-2004 06:24:01 9.9 C 8.4 g/m*3 9.9 C 0 km/h
272 02-06-2004 06:36:00 10 C 8.36 g/m*3 10 C 0 km/h
273 02-06-2004 06:48:01 10.1 C 8.42 g/m*3 10.1 C 0 km/h
274 02-06-2004 07:00:01 10.3 C 8.52 g/m*3 10.3 C 0 km/h
275 02-06-2004 07:12:01 10.6 C 8.59 g/m*3 10.6 C 0 km/h
Sensor: Nr:Datum:Temp:Abs-Feuchte:Windchill:Wind:
Aussen-T/F 276 02-06-2004 07:24:01 10.8 C 8.6 g/m*3 10.8 C 0 km/h
277 02-06-2004 07:36:01 11.1 C 8.56 g/m*3 11.1 C 0 km/h
278 02-06-2004 07:48:01 11 C 8.41 g/m*3 11 C 0 km/h
279 02-06-2004 08:00:01 11.2 C 8.62 g/m*3 11.2 C 0 km/h
280 02-06-2004 08:12:01 11.6 C 8.73 g/m*3 11.6 C 0 km/h
281 02-06-2004 08:24:01 11.9 C 8.9 g/m*3 11.9 C 0 km/h
282 02-06-2004 08:36:00 12.4 C 8.96 g/m*3 12.4 C 0 km/h
283 02-06-2004 08:48:01 13.1 C 9.13 g/m*3 13.1 C 0 km/h
284 02-06-2004 09:00:01 13.5 C 9.12 g/m*3 13.5 C 0 km/h
285 02-06-2004 09:12:01 14 C 9.29 g/m*3 14 C 0 km/h
286 02-06-2004 09:24:01 14.6 C 9.26 g/m*3 14.6 C 0 km/h
287 02-06-2004 09:36:01 15.4 C 9.2 g/m*3 15.4 C 0 km/h
288 02-06-2004 09:48:01 16.1 C 9.46 g/m*3 16.1 C 0 km/h
289 02-06-2004 10:00:01 16.8 C 9.58 g/m*3 16.8 C 0 km/h
290 02-06-2004 10:12:01 17.5 C 9.54 g/m*3 17.5 C 0 km/h
291 02-06-2004 10:24:01 18 C 9.37 g/m*3 18 C 0 km/h
292 02-06-2004 10:36:01 18.8 C 9.66 g/m*3 18.8 C 0 km/h
293 02-06-2004 10:48:01 19.3 C 9.45 g/m*3 19.3 C 0 km/h
294 02-06-2004 11:00:01 19.7 C 9.34 g/m*3 19.7 C 0 km/h
295 02-06-2004 11:12:01 20.6 C 10.02 g/m*3 20.6 C 0 km/h
296 02-06-2004 11:24:01 21 C 9.16 g/m*3 21 C 0 km/h
297 02-06-2004 11:36:01 21.4 C 8.81 g/m*3 21.4 C 0 km/h
298 02-06-2004 11:48:01 21.9 C 8.68 g/m*3 21.9 C 0 km/h
299 02-06-2004 12:00:01 22.6 C 8.04 g/m*3 22.6 C 0 km/h
300 02-06-2004 12:12:01 22.4 C 7.55 g/m*3 22.4 C 0 km/h
Sensor: Nr:Datum:Temp:Abs-Feuchte:Windchill:Wind:
Aussen-T/F 301 02-06-2004 12:24:01 21.3 C 7.83 g/m*3 21.3 C 0 km/h
302 02-06-2004 12:36:01 21.1 C 7.92 g/m*3 21.1 C 0 km/h
303 02-06-2004 12:48:01 21.3 C 8.39 g/m*3 21.3 C 0 km/h
304 02-06-2004 13:00:01 21.6 C 8.53 g/m*3 21.6 C 0 km/h
305 02-06-2004 13:12:01 24.4 C 8.23 g/m*3 24.4 C 0 km/h
306 02-06-2004 13:24:01 23.4 C 8.2 g/m*3 23.4 C 0 km/h
307 02-06-2004 13:36:02 22.1 C 7.81 g/m*3 22.1 C 0 km/h
308 02-06-2004 13:48:01 20.6 C 8.41 g/m*3 20.6 C 0 km/h
309 02-06-2004 14:00:01 20.6 C 8.77 g/m*3 20.6 C 0 km/h
310 02-06-2004 14:12:02 22 C 8.73 g/m*3 22 C 0 km/h
311 02-06-2004 14:24:01 18.7 C 11.53 g/m*3 18.7 C 0 km/h
312 02-06-2004 14:36:02 16.1 C 11.24 g/m*3 16.1 C 0 km/h
313 02-06-2004 14:48:01 15.4 C 11.43 g/m*3 15.4 C 0 km/h
314 02-06-2004 15:00:01 15.3 C 11.62 g/m*3 15.3 C 0 km/h
315 02-06-2004 15:12:02 15.9 C 12.19 g/m*3 15.9 C 0 km/h
316 02-06-2004 15:24:02 16.3 C 12.35 g/m*3 16.3 C 0 km/h
317 02-06-2004 15:36:02 16.8 C 12.58 g/m*3 16.8 C 0 km/h
318 02-06-2004 15:48:02 17.6 C 12.75 g/m*3 17.6 C 0 km/h
319 02-06-2004 16:00:02 20.3 C 13.72 g/m*3 20.3 C 0 km/h
320 02-06-2004 16:12:02 20.4 C 12.91 g/m*3 20.4 C 0 km/h
321 02-06-2004 16:24:02 19.3 C 12.77 g/m*3 19.3 C 0 km/h
322 02-06-2004 16:36:02 17.7 C 9.66 g/m*3 17.7 C 0 km/h
323 02-06-2004 16:48:02 15.8 C 10.5 g/m*3 15.8 C 0 km/h
324 02-06-2004 17:00:02 15.5 C 10.57 g/m*3 15.5 C 0 km/h
325 02-06-2004 17:12:02 15.7 C 11.37 g/m*3 15.7 C 0 km/h
Sensor: Nr:Datum:Temp:Abs-Feuchte:Windchill:Wind:
Aussen-T/F 326 02-06-2004 17:24:02 16.1 C 11.93 g/m*3 16.1 C 0 km/h
327 02-06-2004 17:36:02 16.3 C 12.21 g/m*3 16.3 C 0 km/h
328 02-06-2004 17:48:01 16.5 C 12.22 g/m*3 16.5 C 0 km/h
329 02-06-2004 18:00:01 16.6 C 12.01 g/m*3 16.6 C 0 km/h
330 02-06-2004 18:12:01 16.9 C 11.94 g/m*3 16.9 C 0 km/h
331 02-06-2004 18:24:01 16.9 C 11.94 g/m*3 16.9 C 0 km/h
332 02-06-2004 18:36:01 16.5 C 11.09 g/m*3 16.5 C 0 km/h
333 02-06-2004 18:48:01 16.2 C 10.76 g/m*3 16.2 C 0 km/h
334 02-06-2004 19:00:01 16.3 C 10.82 g/m*3 16.3 C 0 km/h
335 02-06-2004 19:12:01 16.3 C 10.96 g/m*3 16.3 C 0 km/h
336 02-06-2004 19:24:01 16.3 C 10.96 g/m*3 16.3 C 0 km/h
337 02-06-2004 19:36:01 15.7 C 10.57 g/m*3 15.7 C 0 km/h
338 02-06-2004 19:48:01 15.2 C 10.51 g/m*3 15.2 C 0 km/h
339 02-06-2004 20:00:01 15.1 C 10.32 g/m*3 15.1 C 0 km/h
340 02-06-2004 20:12:01 15 C 10.51 g/m*3 15 C 0 km/h
341 02-06-2004 20:24:01 14.8 C 10.64 g/m*3 14.8 C 0 km/h
342 02-06-2004 20:36:01 14.2 C 10.62 g/m*3 14.2 C 0 km/h
343 02-06-2004 20:48:01 14.1 C 10.8 g/m*3 14.1 C 0 km/h
344 02-06-2004 21:00:01 14 C 10.86 g/m*3 14 C 0 km/h
345 02-06-2004 21:12:01 13.6 C 10.71 g/m*3 13.6 C 0 km/h
346 02-06-2004 21:24:01 13.3 C 10.4 g/m*3 13.3 C 0 km/h
347 02-06-2004 21:36:01 13.4 C 10.69 g/m*3 13.4 C 0 km/h
348 02-06-2004 21:48:01 13.4 C 10.69 g/m*3 13.4 C 0 km/h
349 02-06-2004 22:00:01 13.5 C 10.88 g/m*3 13.5 C 0 km/h
350 02-06-2004 22:12:01 13.4 C 10.81 g/m*3 13.4 C 0 km/h
Sensor: Nr:Datum:Temp:Abs-Feuchte:Windchill:Wind:
Aussen-T/F 351 02-06-2004 22:24:01 13.2 C 10.68 g/m*3 13.2 C 0 km/h
352 02-06-2004 22:36:01 13.2 C 10.68 g/m*3 13.2 C 0 km/h
353 02-06-2004 22:48:01 13 C 10.55 g/m*3 13 C 0 km/h
354 02-06-2004 23:00:01 12.9 C 10.48 g/m*3 12.9 C 0 km/h
355 02-06-2004 23:12:01 13 C 10.43 g/m*3 13 C 0 km/h
356 02-06-2004 23:24:01 13 C 10.32 g/m*3 13 C 0 km/h
357 02-06-2004 23:36:01 13.1 C 10.38 g/m*3 13.1 C 0 km/h
358 02-06-2004 23:48:01 13 C 10.32 g/m*3 13 C 0 km/h
359 03-06-2004 00:00:01 12.9 C 10.37 g/m*3 12.9 C 0 km/h
360 03-06-2004 00:12:01 12.8 C 10.3 g/m*3 12.8 C 0 km/h
361 03-06-2004 00:24:01 12.7 C 10.35 g/m*3 12.7 C 0 km/h
362 03-06-2004 00:36:00 12.7 C 10.35 g/m*3 12.7 C 0 km/h
363 03-06-2004 00:48:01 12.6 C 10.29 g/m*3 12.6 C 0 km/h
364 03-06-2004 01:00:01 12.8 C 10.53 g/m*3 12.8 C 0 km/h
365 03-06-2004 01:12:01 12.7 C 10.46 g/m*3 12.7 C 0 km/h
366 03-06-2004 01:24:02 12.8 C 10.53 g/m*3 12.8 C 0 km/h
367 03-06-2004 01:36:02 12.8 C 10.53 g/m*3 12.8 C 0 km/h
368 03-06-2004 01:48:02 13 C 10.55 g/m*3 13 C 0 km/h
369 03-06-2004 02:00:02 12.9 C 10.48 g/m*3 12.9 C 0 km/h
370 03-06-2004 02:12:02 12.9 C 10.48 g/m*3 12.9 C 0 km/h
371 03-06-2004 02:24:02 12.9 C 10.48 g/m*3 12.9 C 0 km/h
372 03-06-2004 02:36:02 12.8 C 10.3 g/m*3 12.8 C 0 km/h
373 03-06-2004 02:49:03 12.8 C 10.3 g/m*3 12.8 C 0 km/h
374 03-06-2004 03:01:03 12.8 C 10.3 g/m*3 12.8 C 0 km/h
375 03-06-2004 03:13:03 12.9 C 10.37 g/m*3 12.9 C 0 km/h
Sensor: Nr:Datum:Temp:Abs-Feuchte:Windchill:Wind:
Aussen-T/F 376 03-06-2004 03:25:03 12.9 C 10.48 g/m*3 12.9 C 0 km/h
377 03-06-2004 03:37:01 12.9 C 10.48 g/m*3 12.9 C 0 km/h
378 03-06-2004 03:49:01 12.9 C 10.48 g/m*3 12.9 C 0 km/h
379 03-06-2004 04:01:01 12.9 C 10.48 g/m*3 12.9 C 0 km/h
380 03-06-2004 04:13:01 12.9 C 10.37 g/m*3 12.9 C 0 km/h
381 03-06-2004 04:25:01 13 C 10.43 g/m*3 13 C 0 km/h
382 03-06-2004 04:37:01 13 C 10.43 g/m*3 13 C 0 km/h
383 03-06-2004 04:49:01 13 C 10.43 g/m*3 13 C 0 km/h
384 03-06-2004 05:01:01 13 C 10.43 g/m*3 13 C 0 km/h
385 03-06-2004 05:13:01 13 C 10.43 g/m*3 13 C 0 km/h
386 03-06-2004 05:25:01 13.2 C 10.56 g/m*3 13.2 C 0 km/h
387 03-06-2004 05:37:01 13.2 C 10.45 g/m*3 13.2 C 0 km/h
388 03-06-2004 05:49:01 13.2 C 10.33 g/m*3 13.2 C 0 km/h
389 03-06-2004 06:01:01 13.2 C 10.33 g/m*3 13.2 C 0 km/h
390 03-06-2004 06:13:01 13.2 C 10.33 g/m*3 13.2 C 0 km/h
391 03-06-2004 06:25:00 13.1 C 10.27 g/m*3 13.1 C 0 km/h
392 03-06-2004 06:37:00 13.1 C 10.27 g/m*3 13.1 C 0 km/h
393 03-06-2004 06:49:01 13.1 C 10.38 g/m*3 13.1 C 0 km/h
394 03-06-2004 07:01:02 13.2 C 10.45 g/m*3 13.2 C 0 km/h
395 03-06-2004 07:13:02 13.2 C 10.33 g/m*3 13.2 C 0 km/h
396 03-06-2004 07:25:01 13.3 C 10.4 g/m*3 13.3 C 0 km/h
397 03-06-2004 07:37:01 13.4 C 10.46 g/m*3 13.4 C 0 km/h
398 03-06-2004 07:49:01 13.4 C 10.35 g/m*3 13.4 C 0 km/h
399 03-06-2004 08:01:01 13.6 C 10.36 g/m*3 13.6 C 0 km/h
400 03-06-2004 08:13:01 13.7 C 10.3 g/m*3 13.7 C 0 km/h
Sensor: Nr:Datum:Temp:Abs-Feuchte:Windchill:Wind:
Aussen-T/F 401 03-06-2004 08:25:01 13.6 C 10.24 g/m*3 13.6 C 0 km/h
402 03-06-2004 08:37:00 13.7 C 10.3 g/m*3 13.7 C 0 km/h
403 03-06-2004 08:49:01 13.9 C 10.19 g/m*3 13.9 C 0 km/h
404 03-06-2004 09:01:01 14.2 C 10.14 g/m*3 14.2 C 0 km/h
405 03-06-2004 09:13:01 14.7 C 10.32 g/m*3 14.7 C 0 km/h
406 03-06-2004 09:25:01 14.4 C 9.77 g/m*3 14.4 C 0 km/h
407 03-06-2004 09:37:01 14.6 C 10.01 g/m*3 14.6 C 0 km/h
408 03-06-2004 09:49:01 14.9 C 9.94 g/m*3 14.9 C 0 km/h
409 03-06-2004 10:01:01 14.9 C 10.07 g/m*3 14.9 C 0 km/h
410 03-06-2004 10:13:01 14.8 C 9.88 g/m*3 14.8 C 0 km/h
411 03-06-2004 10:25:01 15.4 C 9.85 g/m*3 15.4 C 0 km/h
412 03-06-2004 10:37:01 16 C 9.81 g/m*3 16 C 0 km/h
413 03-06-2004 10:49:01 15.7 C 9.77 g/m*3 15.7 C 0 km/h
414 03-06-2004 11:01:01 15.6 C 9.71 g/m*3 15.6 C 0 km/h
415 03-06-2004 11:13:01 15.6 C 9.71 g/m*3 15.6 C 0 km/h
416 03-06-2004 11:25:01 16 C 9.81 g/m*3 16 C 0 km/h
417 03-06-2004 11:37:01 16.3 C 9.71 g/m*3 16.3 C 0 km/h
418 03-06-2004 11:49:01 16.5 C 9.41 g/m*3 16.5 C 0 km/h
419 03-06-2004 12:01:01 16.1 C 9.32 g/m*3 16.1 C 0 km/h
420 03-06-2004 12:13:01 16 C 9.4 g/m*3 16 C 0 km/h
421 03-06-2004 12:25:01 16.2 C 9.38 g/m*3 16.2 C 0 km/h
422 03-06-2004 12:37:01 16.8 C 9.72 g/m*3 16.8 C 0 km/h
423 03-06-2004 12:49:01 17.3 C 9.72 g/m*3 17.3 C 0 km/h
424 03-06-2004 13:01:01 18.5 C 9.65 g/m*3 18.5 C 0 km/h
425 03-06-2004 13:13:01 18.5 C 9.18 g/m*3 18.5 C 0 km/h
Sensor: Nr:Datum:Temp:Abs-Feuchte:Windchill:Wind:
Aussen-T/F 426 03-06-2004 13:25:01 17.9 C 9.31 g/m*3 17.9 C 0 km/h
427 03-06-2004 13:37:01 18.7 C 9.45 g/m*3 18.7 C 0 km/h
428 03-06-2004 13:49:01 19 C 9.45 g/m*3 19 C 0 km/h
429 03-06-2004 14:01:02 18.8 C 9.66 g/m*3 18.8 C 0 km/h
430 03-06-2004 14:13:02 18.3 C 9.38 g/m*3 18.3 C 0 km/h
431 03-06-2004 14:25:01 18.1 C 9.27 g/m*3 18.1 C 0 km/h
432 03-06-2004 14:37:02 18.7 C 9.29 g/m*3 18.7 C 0 km/h
433 03-06-2004 14:49:02 20.8 C 9.78 g/m*3 20.8 C 0 km/h
434 03-06-2004 15:01:02 20.3 C 9.32 g/m*3 20.3 C 0 km/h
435 03-06-2004 15:13:02 20.6 C 9.31 g/m*3 20.6 C 0 km/h
436 03-06-2004 15:25:02 20.6 C 9.31 g/m*3 20.6 C 0 km/h
437 03-06-2004 15:37:02 20.4 C 9.38 g/m*3 20.4 C 0 km/h
438 03-06-2004 15:49:02 20.5 C 9.43 g/m*3 20.5 C 0 km/h
439 03-06-2004 16:01:02 21 C 9.34 g/m*3 21 C 0 km/h
440 03-06-2004 16:13:02 21.5 C 9.24 g/m*3 21.5 C 0 km/h
441 03-06-2004 16:25:02 22.2 C 9.42 g/m*3 22.2 C 0 km/h
442 03-06-2004 16:37:02 21.8 C 9.4 g/m*3 21.8 C 0 km/h
443 03-06-2004 16:49:01 21.9 C 9.46 g/m*3 21.9 C 0 km/h
444 03-06-2004 17:01:03 22.5 C 9.59 g/m*3 22.5 C 0 km/h
445 03-06-2004 17:13:03 21.6 C 9.48 g/m*3 21.6 C 0 km/h
446 03-06-2004 17:25:00 21.4 C 9.56 g/m*3 21.4 C 0 km/h
447 03-06-2004 17:37:00 22.4 C 10.13 g/m*3 22.4 C 0 km/h
448 03-06-2004 17:49:01 22.5 C 9.59 g/m*3 22.5 C 0 km/h
449 03-06-2004 18:01:01 21.9 C 9.26 g/m*3 21.9 C 0 km/h
450 03-06-2004 18:13:01 21.7 C 8.97 g/m*3 21.7 C 0 km/h
Sensor: Nr:Datum:Temp:Abs-Feuchte:Windchill:Wind:
Aussen-T/F 451 03-06-2004 18:25:01 21.2 C 9.27 g/m*3 21.2 C 0 km/h
452 03-06-2004 18:37:01 20.8 C 9.6 g/m*3 20.8 C 0 km/h
453 03-06-2004 18:49:01 21.8 C 9.21 g/m*3 21.8 C 0 km/h
454 03-06-2004 19:01:01 21.2 C 9.08 g/m*3 21.2 C 0 km/h
455 03-06-2004 19:13:01 20.8 C 9.6 g/m*3 20.8 C 0 km/h
456 03-06-2004 19:25:01 20.7 C 9.36 g/m*3 20.7 C 0 km/h
457 03-06-2004 19:37:01 20 C 9.16 g/m*3 20 C 0 km/h
458 03-06-2004 19:49:01 20.3 C 9.67 g/m*3 20.3 C 0 km/h
459 03-06-2004 20:01:01 20.9 C 9.83 g/m*3 20.9 C 0 km/h
460 03-06-2004 20:13:01 21.2 C 9.82 g/m*3 21.2 C 0 km/h
461 03-06-2004 20:25:01 20.8 C 9.78 g/m*3 20.8 C 0 km/h
462 03-06-2004 20:37:01 20.4 C 9.73 g/m*3 20.4 C 0 km/h
463 03-06-2004 20:49:01 19.7 C 9.51 g/m*3 19.7 C 0 km/h
464 03-06-2004 21:01:01 19.3 C 10.12 g/m*3 19.3 C 0 km/h
465 03-06-2004 21:13:01 18.7 C 10.25 g/m*3 18.7 C 0 km/h
466 03-06-2004 21:25:00 17.8 C 10.17 g/m*3 17.8 C 0 km/h
467 03-06-2004 21:37:00 17 C 9.98 g/m*3 17 C 0 km/h
468 03-06-2004 21:49:01 16.6 C 9.89 g/m*3 16.6 C 0 km/h
469 03-06-2004 22:01:01 16 C 9.81 g/m*3 16 C 0 km/h
470 03-06-2004 22:13:01 15.8 C 10.1 g/m*3 15.8 C 0 km/h
471 03-06-2004 22:25:01 15.4 C 9.99 g/m*3 15.4 C 0 km/h
472 03-06-2004 22:37:01 15.5 C 10.18 g/m*3 15.5 C 0 km/h
473 03-06-2004 22:49:01 15.4 C 10.12 g/m*3 15.4 C 0 km/h
474 03-06-2004 23:01:01 15 C 10 g/m*3 15 C 0 km/h
475 03-06-2004 23:13:01 14.9 C 10.2 g/m*3 14.9 C 0 km/h
Sensor: Nr:Datum:Temp:Abs-Feuchte:Windchill:Wind:
Aussen-T/F 476 03-06-2004 23:25:01 14.9 C 10.2 g/m*3 14.9 C 0 km/h
477 03-06-2004 23:37:01 14.9 C 10.32 g/m*3 14.9 C 0 km/h
478 03-06-2004 23:49:01 14.7 C 10.2 g/m*3 14.7 C 0 km/h
479 04-06-2004 00:01:01 14.4 C 10.14 g/m*3 14.4 C 0 km/h
480 04-06-2004 00:13:01 14.5 C 10.32 g/m*3 14.5 C 0 km/h
481 04-06-2004 00:25:01 14.4 C 10.38 g/m*3 14.4 C 0 km/h
482 04-06-2004 00:37:01 14.1 C 10.19 g/m*3 14.1 C 0 km/h
483 04-06-2004 00:49:01 14 C 10.13 g/m*3 14 C 0 km/h
484 04-06-2004 01:01:01 13.8 C 10.37 g/m*3 13.8 C 0 km/h
485 04-06-2004 01:13:01 13.4 C 10 g/m*3 13.4 C 0 km/h
486 04-06-2004 01:25:01 13.3 C 9.94 g/m*3 13.3 C 0 km/h
487 04-06-2004 01:37:01 13.2 C 9.99 g/m*3 13.2 C 0 km/h
488 04-06-2004 01:49:01 13.1 C 10.04 g/m*3 13.1 C 0 km/h
489 04-06-2004 02:01:01 13 C 9.98 g/m*3 13 C 0 km/h
490 04-06-2004 02:13:01 13 C 9.98 g/m*3 13 C 0 km/h
491 04-06-2004 02:25:01 12.8 C 9.86 g/m*3 12.8 C 0 km/h
492 04-06-2004 02:37:01 12.8 C 9.97 g/m*3 12.8 C 0 km/h
493 04-06-2004 02:50:03 12.8 C 9.97 g/m*3 12.8 C 0 km/h
494 04-06-2004 03:02:03 12.6 C 9.74 g/m*3 12.6 C 0 km/h
495 04-06-2004 03:14:03 12.5 C 9.68 g/m*3 12.5 C 0 km/h
496 04-06-2004 03:26:03 12.3 C 9.66 g/m*3 12.3 C 0 km/h
497 04-06-2004 03:38:01 12.1 C 9.54 g/m*3 12.1 C 0 km/h
498 04-06-2004 03:50:01 12 C 9.48 g/m*3 12 C 0 km/h
499 04-06-2004 04:02:01 11.8 C 9.37 g/m*3 11.8 C 0 km/h
500 04-06-2004 04:14:01 11.8 C 9.47 g/m*3 11.8 C 0 km/h
Sensor: Nr:Datum:Temp:Abs-Feuchte:Windchill:Wind:
Aussen-T/F 501 04-06-2004 04:26:01 11.7 C 9.41 g/m*3 11.7 C 0 km/h
502 04-06-2004 04:38:01 11.6 C 9.46 g/m*3 11.6 C 0 km/h
503 04-06-2004 04:50:01 11.5 C 9.5 g/m*3 11.5 C 0 km/h
504 04-06-2004 05:02:01 11.4 C 9.44 g/m*3 11.4 C 0 km/h
505 04-06-2004 05:14:01 11.3 C 9.38 g/m*3 11.3 C 0 km/h
506 04-06-2004 05:26:00 11.4 C 9.44 g/m*3 11.4 C 0 km/h
507 04-06-2004 05:38:00 11.4 C 9.44 g/m*3 11.4 C 0 km/h
508 04-06-2004 05:50:01 11.5 C 9.5 g/m*3 11.5 C 0 km/h
509 04-06-2004 06:02:01 11.5 C 9.5 g/m*3 11.5 C 0 km/h
510 04-06-2004 06:14:01 11.5 C 9.4 g/m*3 11.5 C 0 km/h
511 04-06-2004 06:26:00 11.7 C 9.52 g/m*3 11.7 C 0 km/h
512 04-06-2004 06:38:00 11.8 C 9.47 g/m*3 11.8 C 0 km/h
513 04-06-2004 06:50:01 11.9 C 9.53 g/m*3 11.9 C 0 km/h
514 04-06-2004 07:02:01 11.9 C 9.43 g/m*3 11.9 C 0 km/h
515 04-06-2004 07:14:01 12.1 C 9.44 g/m*3 12.1 C 0 km/h
516 04-06-2004 07:26:00 12.3 C 9.56 g/m*3 12.3 C 0 km/h
517 04-06-2004 07:38:00 12.4 C 9.51 g/m*3 12.4 C 0 km/h
518 04-06-2004 07:50:01 12.8 C 9.63 g/m*3 12.8 C 0 km/h
519 04-06-2004 08:02:01 12.9 C 9.58 g/m*3 12.9 C 0 km/h
520 04-06-2004 08:14:01 13.1 C 9.59 g/m*3 13.1 C 0 km/h
521 04-06-2004 08:26:00 13.1 C 9.59 g/m*3 13.1 C 0 km/h
522 04-06-2004 08:38:00 13.3 C 9.7 g/m*3 13.3 C 0 km/h
523 04-06-2004 08:50:01 13.4 C 9.76 g/m*3 13.4 C 0 km/h
524 04-06-2004 09:02:01 13.3 C 9.82 g/m*3 13.3 C 0 km/h
525 04-06-2004 09:14:01 13.2 C 9.99 g/m*3 13.2 C 0 km/h
Sensor: Nr:Datum:Temp:Abs-Feuchte:Windchill:Wind:
Aussen-T/F 526 04-06-2004 09:26:01 13.3 C 10.17 g/m*3 13.3 C 0 km/h
527 04-06-2004 09:38:00 13.2 C 10.1 g/m*3 13.2 C 0 km/h
528 04-06-2004 09:50:01 13.2 C 10.22 g/m*3 13.2 C 0 km/h
529 04-06-2004 10:02:01 13.2 C 10.33 g/m*3 13.2 C 0 km/h
530 04-06-2004 10:14:01 13.2 C 10.33 g/m*3 13.2 C 0 km/h
531 04-06-2004 10:26:01 13.6 C 10.59 g/m*3 13.6 C 0 km/h
532 04-06-2004 10:38:00 13.6 C 10.59 g/m*3 13.6 C 0 km/h
533 04-06-2004 10:50:01 13.8 C 10.6 g/m*3 13.8 C 0 km/h
534 04-06-2004 11:02:01 14.2 C 10.75 g/m*3 14.2 C 0 km/h
535 04-06-2004 11:14:01 14.3 C 10.81 g/m*3 14.3 C 0 km/h
536 04-06-2004 11:26:01 14.5 C 10.82 g/m*3 14.5 C 0 km/h
537 04-06-2004 11:38:01 14.4 C 10.88 g/m*3 14.4 C 0 km/h
538 04-06-2004 11:50:01 14.8 C 11.15 g/m*3 14.8 C 0 km/h
539 04-06-2004 12:02:01 14.4 C 10.88 g/m*3 14.4 C 0 km/h
540 04-06-2004 12:14:01 14.4 C 11 g/m*3 14.4 C 0 km/h
541 04-06-2004 12:26:01 14.8 C 11.4 g/m*3 14.8 C 0 km/h
542 04-06-2004 12:38:01 14.8 C 11.15 g/m*3 14.8 C 0 km/h
543 04-06-2004 12:50:01 15 C 10.64 g/m*3 15 C 0 km/h
544 04-06-2004 13:02:01 15.1 C 10.32 g/m*3 15.1 C 0 km/h
545 04-06-2004 13:14:01 15.1 C 10.19 g/m*3 15.1 C 0 km/h
546 04-06-2004 13:26:01 15.1 C 9.68 g/m*3 15.1 C 0 km/h
547 04-06-2004 13:38:01 14.8 C 9.75 g/m*3 14.8 C 0 km/h
548 04-06-2004 13:50:01 14.6 C 10.14 g/m*3 14.6 C 0 km/h
549 04-06-2004 14:02:01 14.3 C 9.83 g/m*3 14.3 C 0 km/h
550 04-06-2004 14:14:01 14.4 C 10.01 g/m*3 14.4 C 0 km/h
Sensor: Nr:Datum:Temp:Abs-Feuchte:Windchill:Wind:
Aussen-T/F 551 04-06-2004 14:26:01 14.4 C 9.77 g/m*3 14.4 C 0 km/h
552 04-06-2004 14:38:01 14.2 C 9.89 g/m*3 14.2 C 0 km/h
553 04-06-2004 14:50:01 13.8 C 10.13 g/m*3 13.8 C 0 km/h
554 04-06-2004 15:02:01 14 C 10.25 g/m*3 14 C 0 km/h
555 04-06-2004 15:14:01 14.2 C 10.26 g/m*3 14.2 C 0 km/h
556 04-06-2004 15:26:01 14.4 C 10.63 g/m*3 14.4 C 0 km/h
557 04-06-2004 15:38:01 14 C 10.37 g/m*3 14 C 0 km/h
558 04-06-2004 15:50:01 14 C 10.49 g/m*3 14 C 0 km/h
559 04-06-2004 16:02:02 14.1 C 10.68 g/m*3 14.1 C 0 km/h
560 04-06-2004 16:14:02 14.1 C 10.68 g/m*3 14.1 C 0 km/h
561 04-06-2004 16:26:01 14.4 C 10.63 g/m*3 14.4 C 0 km/h
562 04-06-2004 16:38:01 14.6 C 10.64 g/m*3 14.6 C 0 km/h
563 04-06-2004 16:50:01 14.5 C 10.57 g/m*3 14.5 C 0 km/h
564 04-06-2004 17:02:01 14.6 C 10.26 g/m*3 14.6 C 0 km/h
565 04-06-2004 17:14:01 15.1 C 10.45 g/m*3 15.1 C 0 km/h
566 04-06-2004 17:26:01 15.4 C 10.51 g/m*3 15.4 C 0 km/h
567 04-06-2004 17:38:01 15.8 C 10.5 g/m*3 15.8 C 0 km/h
568 04-06-2004 17:50:01 16.1 C 10.42 g/m*3 16.1 C 0 km/h
569 04-06-2004 18:02:01 15.7 C 10.3 g/m*3 15.7 C 0 km/h
570 04-06-2004 18:14:01 15.7 C 10.7 g/m*3 15.7 C 0 km/h
571 04-06-2004 18:26:01 15.9 C 10.97 g/m*3 15.9 C 0 km/h
572 04-06-2004 18:38:01 16 C 10.63 g/m*3 16 C 0 km/h
573 04-06-2004 18:50:01 16 C 10.76 g/m*3 16 C 0 km/h
574 04-06-2004 19:02:01 16 C 10.9 g/m*3 16 C 0 km/h
575 04-06-2004 19:14:01 16.5 C 10.81 g/m*3 16.5 C 0 km/h
Sensor: Nr:Datum:Temp:Abs-Feuchte:Windchill:Wind:
Aussen-T/F 576 04-06-2004 19:26:01 16.8 C 11.01 g/m*3 16.8 C 0 km/h
577 04-06-2004 19:38:01 16.7 C 10.37 g/m*3 16.7 C 0 km/h
578 04-06-2004 19:50:01 16.8 C 10.87 g/m*3 16.8 C 0 km/h
579 04-06-2004 20:02:01 16.5 C 10.39 g/m*3 16.5 C 0 km/h
580 04-06-2004 20:14:01 15.9 C 10.29 g/m*3 15.9 C 0 km/h
581 04-06-2004 20:26:01 15.5 C 10.31 g/m*3 15.5 C 0 km/h
582 04-06-2004 20:38:01 15.5 C 10.44 g/m*3 15.5 C 0 km/h
583 04-06-2004 20:50:01 14.9 C 10.32 g/m*3 14.9 C 0 km/h
584 04-06-2004 21:02:01 14.5 C 10.32 g/m*3 14.5 C 0 km/h
585 04-06-2004 21:14:01 14.2 C 10.26 g/m*3 14.2 C 0 km/h
586 04-06-2004 21:26:02 14.1 C 10.32 g/m*3 14.1 C 0 km/h
587 04-06-2004 21:38:01 14 C 10.37 g/m*3 14 C 0 km/h
588 04-06-2004 21:50:01 14 C 10.37 g/m*3 14 C 0 km/h
589 04-06-2004 22:02:01 14 C 10.37 g/m*3 14 C 0 km/h
590 04-06-2004 22:14:01 14 C 10.37 g/m*3 14 C 0 km/h
591 04-06-2004 22:26:01 14 C 10.37 g/m*3 14 C 0 km/h
592 04-06-2004 22:38:01 13.9 C 10.43 g/m*3 13.9 C 0 km/h
593 04-06-2004 22:50:01 14 C 10.25 g/m*3 14 C 0 km/h
594 04-06-2004 23:02:01 13.8 C 10.25 g/m*3 13.8 C 0 km/h
595 04-06-2004 23:14:01 13.6 C 10.12 g/m*3 13.6 C 0 km/h
596 04-06-2004 23:26:01 13.7 C 10.18 g/m*3 13.7 C 0 km/h
597 04-06-2004 23:38:01 13.7 C 10.07 g/m*3 13.7 C 0 km/h
598 04-06-2004 23:50:01 13.7 C 10.07 g/m*3 13.7 C 0 km/h
599 05-06-2004 00:02:01 13.8 C 10.13 g/m*3 13.8 C 0 km/h
600 05-06-2004 00:14:01 13.7 C 9.95 g/m*3 13.7 C 0 km/h
Sensor: Nr:Datum:Temp:Abs-Feuchte:Windchill:Wind:
Aussen-T/F 601 05-06-2004 00:26:01 13.8 C 10.01 g/m*3 13.8 C 0 km/h
602 05-06-2004 00:38:01 13.8 C 9.89 g/m*3 13.8 C 0 km/h
603 05-06-2004 00:50:01 13.7 C 9.83 g/m*3 13.7 C 0 km/h
604 05-06-2004 01:02:01 13.7 C 9.83 g/m*3 13.7 C 0 km/h
605 05-06-2004 01:14:01 13.7 C 9.95 g/m*3 13.7 C 0 km/h
606 05-06-2004 01:26:01 13.4 C 9.88 g/m*3 13.4 C 0 km/h
607 05-06-2004 01:38:01 13.4 C 10 g/m*3 13.4 C 0 km/h
608 05-06-2004 01:50:01 13.5 C 10.06 g/m*3 13.5 C 0 km/h
609 05-06-2004 02:02:01 13.6 C 10 g/m*3 13.6 C 0 km/h
610 05-06-2004 02:14:01 13.4 C 10.11 g/m*3 13.4 C 0 km/h
611 05-06-2004 02:26:01 13.3 C 10.05 g/m*3 13.3 C 0 km/h
612 05-06-2004 02:38:01 13.4 C 10.23 g/m*3 13.4 C 0 km/h
613 05-06-2004 02:51:03 13.2 C 10.22 g/m*3 13.2 C 0 km/h
614 05-06-2004 03:03:03 13.1 C 10.16 g/m*3 13.1 C 0 km/h
615 05-06-2004 03:15:03 13.1 C 10.27 g/m*3 13.1 C 0 km/h
616 05-06-2004 03:27:03 13 C 10.32 g/m*3 13 C 0 km/h
617 05-06-2004 03:39:02 13.1 C 10.38 g/m*3 13.1 C 0 km/h
618 05-06-2004 03:51:02 13 C 10.32 g/m*3 13 C 0 km/h
619 05-06-2004 04:03:02 13 C 10.32 g/m*3 13 C 0 km/h
620 05-06-2004 04:15:02 13.1 C 10.27 g/m*3 13.1 C 0 km/h
621 05-06-2004 04:27:02 13 C 10.21 g/m*3 13 C 0 km/h
622 05-06-2004 04:39:02 13 C 10.21 g/m*3 13 C 0 km/h
623 05-06-2004 04:51:01 13.1 C 10.27 g/m*3 13.1 C 0 km/h
624 05-06-2004 05:03:01 13.1 C 10.38 g/m*3 13.1 C 0 km/h
625 05-06-2004 05:15:01 13 C 10.32 g/m*3 13 C 0 km/h
Sensor: Nr:Datum:Temp:Abs-Feuchte:Windchill:Wind:
Aussen-T/F 626 05-06-2004 05:27:01 13 C 10.21 g/m*3 13 C 0 km/h
627 05-06-2004 05:39:01 13 C 10.21 g/m*3 13 C 0 km/h
628 05-06-2004 05:51:01 13 C 10.21 g/m*3 13 C 0 km/h
629 05-06-2004 06:03:01 13.1 C 10.27 g/m*3 13.1 C 0 km/h
630 05-06-2004 06:15:01 13.1 C 10.27 g/m*3 13.1 C 0 km/h
631 05-06-2004 06:27:01 13.1 C 10.27 g/m*3 13.1 C 0 km/h
632 05-06-2004 06:39:01 13.1 C 10.27 g/m*3 13.1 C 0 km/h
633 05-06-2004 06:51:01 13.2 C 9.87 g/m*3 13.2 C 0 km/h
634 05-06-2004 07:03:01 13.2 C 9.53 g/m*3 13.2 C 0 km/h
635 05-06-2004 07:15:01 13.1 C 9.47 g/m*3 13.1 C 0 km/h
636 05-06-2004 07:27:01 13 C 9.3 g/m*3 13 C 0 km/h
637 05-06-2004 07:39:00 13.1 C 9.24 g/m*3 13.1 C 0 km/h
638 05-06-2004 07:51:01 13.2 C 9.3 g/m*3 13.2 C 0 km/h
639 05-06-2004 08:03:01 13.4 C 9.3 g/m*3 13.4 C 0 km/h
640 05-06-2004 08:15:01 13.5 C 9.12 g/m*3 13.5 C 0 km/h
641 05-06-2004 08:27:01 13.6 C 8.94 g/m*3 13.6 C 0 km/h
642 05-06-2004 08:39:01 13.6 C 8.71 g/m*3 13.6 C 0 km/h
643 05-06-2004 08:51:01 13.5 C 8.77 g/m*3 13.5 C 0 km/h
644 05-06-2004 09:03:01 13.9 C 8.99 g/m*3 13.9 C 0 km/h
645 05-06-2004 09:15:01 13.9 C 8.75 g/m*3 13.9 C 0 km/h
646 05-06-2004 09:27:01 13.8 C 8.58 g/m*3 13.8 C 0 km/h
647 05-06-2004 09:39:00 14.2 C 8.67 g/m*3 14.2 C 0 km/h
648 05-06-2004 09:51:01 14.4 C 8.78 g/m*3 14.4 C 0 km/h
649 05-06-2004 10:03:01 14.7 C 8.56 g/m*3 14.7 C 0 km/h
650 05-06-2004 10:15:01 14.4 C 8.16 g/m*3 14.4 C 0 km/h
Sensor: Nr:Datum:Temp:Abs-Feuchte:Windchill:Wind:
Aussen-T/F 651 05-06-2004 10:27:01 14.7 C 8.18 g/m*3 14.7 C 0 km/h
652 05-06-2004 10:39:00 15.1 C 8.13 g/m*3 15.1 C 0 km/h
653 05-06-2004 10:51:01 14.9 C 7.9 g/m*3 14.9 C 0 km/h
654 05-06-2004 11:03:01 15.3 C 7.84 g/m*3 15.3 C 0 km/h
655 05-06-2004 11:15:01 14.4 C 8.03 g/m*3 14.4 C 0 km/h
656 05-06-2004 11:27:01 14.5 C 8.33 g/m*3 14.5 C 0 km/h
657 05-06-2004 11:39:01 14.8 C 8.61 g/m*3 14.8 C 0 km/h
658 05-06-2004 11:51:02 14.4 C 8.28 g/m*3 14.4 C 0 km/h
659 05-06-2004 12:03:01 14.7 C 8.31 g/m*3 14.7 C 0 km/h
660 05-06-2004 12:15:01 15.2 C 8.31 g/m*3 15.2 C 0 km/h
661 05-06-2004 12:27:01 15.5 C 7.93 g/m*3 15.5 C 0 km/h
662 05-06-2004 12:39:01 16.3 C 7.77 g/m*3 16.3 C 0 km/h
663 05-06-2004 12:51:01 15.8 C 7.81 g/m*3 15.8 C 0 km/h
664 05-06-2004 13:03:01 16.3 C 8.05 g/m*3 16.3 C 0 km/h
665 05-06-2004 13:15:01 16.4 C 7.96 g/m*3 16.4 C 0 km/h
666 05-06-2004 13:27:01 17.3 C 7.81 g/m*3 17.3 C 0 km/h
667 05-06-2004 13:39:01 17.3 C 7.96 g/m*3 17.3 C 0 km/h
668 05-06-2004 13:51:01 16.7 C 7.82 g/m*3 16.7 C 0 km/h
669 05-06-2004 14:03:01 16.5 C 8 g/m*3 16.5 C 0 km/h
670 05-06-2004 14:15:01 15.5 C 7.8 g/m*3 15.5 C 0 km/h
671 05-06-2004 14:27:01 15.2 C 7.92 g/m*3 15.2 C 0 km/h
672 05-06-2004 14:39:01 15.3 C 8.1 g/m*3 15.3 C 0 km/h
673 05-06-2004 14:51:01 15.9 C 8.13 g/m*3 15.9 C 0 km/h
674 05-06-2004 15:03:01 16 C 8.04 g/m*3 16 C 0 km/h
675 05-06-2004 15:15:01 16.5 C 8.14 g/m*3 16.5 C 0 km/h
Sensor: Nr:Datum:Temp:Abs-Feuchte:Windchill:Wind:
Aussen-T/F 676 05-06-2004 15:27:01 16.6 C 8.19 g/m*3 16.6 C 0 km/h
677 05-06-2004 15:39:01 16.1 C 8.09 g/m*3 16.1 C 0 km/h
678 05-06-2004 15:51:01 16.8 C 8.15 g/m*3 16.8 C 0 km/h
679 05-06-2004 16:03:01 16.3 C 8.32 g/m*3 16.3 C 0 km/h
680 05-06-2004 16:15:01 16 C 8.04 g/m*3 16 C 0 km/h
681 05-06-2004 16:27:01 15 C 8.85 g/m*3 15 C 0 km/h
682 05-06-2004 16:39:01 14.5 C 9.08 g/m*3 14.5 C 0 km/h
683 05-06-2004 16:51:01 15.3 C 9.01 g/m*3 15.3 C 0 km/h
684 05-06-2004 17:03:01 15.6 C 8.91 g/m*3 15.6 C 0 km/h
685 05-06-2004 17:15:01 15.4 C 8.15 g/m*3 15.4 C 0 km/h
686 05-06-2004 17:27:01 15.2 C 8.18 g/m*3 15.2 C 0 km/h
687 05-06-2004 17:39:01 15.7 C 8.56 g/m*3 15.7 C 0 km/h
688 05-06-2004 17:51:01 16 C 8.45 g/m*3 16 C 0 km/h
689 05-06-2004 18:03:01 16.1 C 8.36 g/m*3 16.1 C 0 km/h
690 05-06-2004 18:15:01 15.8 C 8.48 g/m*3 15.8 C 0 km/h
691 05-06-2004 18:27:01 15.6 C 8.51 g/m*3 15.6 C 0 km/h
692 05-06-2004 18:39:01 15.6 C 8.51 g/m*3 15.6 C 0 km/h
693 05-06-2004 18:51:01 15.3 C 8.49 g/m*3 15.3 C 0 km/h
694 05-06-2004 19:03:01 15.3 C 8.75 g/m*3 15.3 C 0 km/h
695 05-06-2004 19:15:01 15.2 C 8.7 g/m*3 15.2 C 0 km/h
696 05-06-2004 19:27:01 15.4 C 8.8 g/m*3 15.4 C 0 km/h
697 05-06-2004 19:39:01 15.7 C 8.96 g/m*3 15.7 C 0 km/h
698 05-06-2004 19:51:01 15.6 C 8.91 g/m*3 15.6 C 0 km/h
699 05-06-2004 20:03:01 15.2 C 8.83 g/m*3 15.2 C 0 km/h
700 05-06-2004 20:15:01 15.1 C 8.9 g/m*3 15.1 C 0 km/h
Sensor: Nr:Datum:Temp:Abs-Feuchte:Windchill:Wind:
Aussen-T/F 701 05-06-2004 20:27:01 15 C 8.98 g/m*3 15 C 0 km/h
702 05-06-2004 20:39:01 14.8 C 9.12 g/m*3 14.8 C 0 km/h
703 05-06-2004 20:51:01 14.7 C 9.19 g/m*3 14.7 C 0 km/h
704 05-06-2004 21:03:01 14.5 C 9.2 g/m*3 14.5 C 0 km/h
705 05-06-2004 21:15:01 14.3 C 9.21 g/m*3 14.3 C 0 km/h
706 05-06-2004 21:27:01 14.2 C 9.28 g/m*3 14.2 C 0 km/h
707 05-06-2004 21:39:01 13.9 C 9.23 g/m*3 13.9 C 0 km/h
708 05-06-2004 21:51:01 13.5 C 9.12 g/m*3 13.5 C 0 km/h
709 05-06-2004 22:03:01 13.1 C 9.01 g/m*3 13.1 C 0 km/h
710 05-06-2004 22:15:01 12.8 C 9.07 g/m*3 12.8 C 0 km/h
711 05-06-2004 22:27:01 12.8 C 9.18 g/m*3 12.8 C 0 km/h
712 05-06-2004 22:39:01 12.7 C 9.02 g/m*3 12.7 C 0 km/h
713 05-06-2004 22:51:01 12.6 C 8.96 g/m*3 12.6 C 0 km/h
714 05-06-2004 23:03:01 12.7 C 9.13 g/m*3 12.7 C 0 km/h
715 05-06-2004 23:15:01 12.8 C 9.18 g/m*3 12.8 C 0 km/h
716 05-06-2004 23:27:01 12.8 C 9.07 g/m*3 12.8 C 0 km/h
717 05-06-2004 23:39:01 12.6 C 9.07 g/m*3 12.6 C 0 km/h
718 05-06-2004 23:51:01 12.5 C 9.02 g/m*3 12.5 C 0 km/h
719 06-06-2004 00:03:01 12.2 C 9.06 g/m*3 12.2 C 0 km/h
720 06-06-2004 00:15:02 12.1 C 9.01 g/m*3 12.1 C 0 km/h
721 06-06-2004 00:27:02 12.2 C 9.06 g/m*3 12.2 C 0 km/h
722 06-06-2004 00:39:01 12.2 C 9.06 g/m*3 12.2 C 0 km/h
723 06-06-2004 00:51:01 12 C 8.95 g/m*3 12 C 0 km/h
724 06-06-2004 01:03:01 11.5 C 8.78 g/m*3 11.5 C 0 km/h
725 06-06-2004 01:15:01 11.3 C 8.77 g/m*3 11.3 C 0 km/h
Sensor: Nr:Datum:Temp:Abs-Feuchte:Windchill:Wind:
Aussen-T/F 726 06-06-2004 01:27:01 11.1 C 8.66 g/m*3 11.1 C 0 km/h
727 06-06-2004 01:39:01 10.9 C 8.65 g/m*3 10.9 C 0 km/h
728 06-06-2004 01:51:01 10.7 C 8.64 g/m*3 10.7 C 0 km/h
729 06-06-2004 02:03:01 10.4 C 8.48 g/m*3 10.4 C 0 km/h
730 06-06-2004 02:15:01 10.4 C 8.58 g/m*3 10.4 C 0 km/h
731 06-06-2004 02:27:01 10.3 C 8.62 g/m*3 10.3 C 0 km/h
732 06-06-2004 02:39:01 10.1 C 8.51 g/m*3 10.1 C 0 km/h
733 06-06-2004 02:52:03 10 C 8.46 g/m*3 10 C 0 km/h
734 06-06-2004 03:04:03 10 C 8.55 g/m*3 10 C 0 km/h
735 06-06-2004 03:16:03 9.8 C 8.54 g/m*3 9.8 C 0 km/h
736 06-06-2004 03:28:03 9.6 C 8.43 g/m*3 9.6 C 0 km/h
737 06-06-2004 03:40:01 9.5 C 8.37 g/m*3 9.5 C 0 km/h
738 06-06-2004 03:52:01 9.4 C 8.23 g/m*3 9.4 C 0 km/h
739 06-06-2004 04:04:01 9.3 C 8.18 g/m*3 9.3 C 0 km/h
740 06-06-2004 04:16:01 9.2 C 8.22 g/m*3 9.2 C 0 km/h
741 06-06-2004 04:28:01 9.1 C 8.16 g/m*3 9.1 C 0 km/h
742 06-06-2004 04:40:01 8.9 C 8.15 g/m*3 8.9 C 0 km/h
743 06-06-2004 04:52:01 8.8 C 8.09 g/m*3 8.8 C 0 km/h
744 06-06-2004 05:04:01 8.9 C 8.23 g/m*3 8.9 C 0 km/h
745 06-06-2004 05:16:01 9 C 8.29 g/m*3 9 C 0 km/h
746 06-06-2004 05:28:01 8.9 C 8.32 g/m*3 8.9 C 0 km/h
747 06-06-2004 05:40:01 9 C 8.29 g/m*3 9 C 0 km/h
748 06-06-2004 05:52:01 9.1 C 8.34 g/m*3 9.1 C 0 km/h
749 06-06-2004 06:04:01 9.2 C 8.39 g/m*3 9.2 C 0 km/h
750 06-06-2004 06:16:00 9.5 C 8.65 g/m*3 9.5 C 0 km/h
Sensor: Nr:Datum:Temp:Abs-Feuchte:Windchill:Wind:
Aussen-T/F 751 06-06-2004 06:28:00 9.6 C 8.7 g/m*3 9.6 C 0 km/h
752 06-06-2004 06:40:00 9.7 C 8.76 g/m*3 9.7 C 0 km/h
753 06-06-2004 06:52:01 9.9 C 8.78 g/m*3 9.9 C 0 km/h
754 06-06-2004 07:04:01 10 C 8.74 g/m*3 10 C 0 km/h
755 06-06-2004 07:16:01 10.2 C 8.76 g/m*3 10.2 C 0 km/h
756 06-06-2004 07:28:01 10.5 C 8.83 g/m*3 10.5 C 0 km/h
757 06-06-2004 07:40:00 10.8 C 8.9 g/m*3 10.8 C 0 km/h
758 06-06-2004 07:52:01 10.7 C 8.84 g/m*3 10.7 C 0 km/h
759 06-06-2004 08:04:01 11.1 C 8.96 g/m*3 11.1 C 0 km/h
760 06-06-2004 08:16:01 11.2 C 8.92 g/m*3 11.2 C 0 km/h
761 06-06-2004 08:28:01 11.7 C 9.1 g/m*3 11.7 C 0 km/h
762 06-06-2004 08:40:00 12 C 9.06 g/m*3 12 C 0 km/h
763 06-06-2004 08:52:01 12 C 8.85 g/m*3 12 C 0 km/h
764 06-06-2004 09:04:01 12.1 C 8.79 g/m*3 12.1 C 0 km/h
765 06-06-2004 09:16:01 12.5 C 9.13 g/m*3 12.5 C 0 km/h
766 06-06-2004 09:28:01 12.9 C 9.13 g/m*3 12.9 C 0 km/h
767 06-06-2004 09:40:00 13.4 C 8.95 g/m*3 13.4 C 0 km/h
768 06-06-2004 09:52:01 13.9 C 8.99 g/m*3 13.9 C 0 km/h
769 06-06-2004 10:04:01 14.4 C 8.78 g/m*3 14.4 C 0 km/h
770 06-06-2004 10:16:02 15.2 C 9.09 g/m*3 15.2 C 0 km/h
771 06-06-2004 10:28:02 15.8 C 8.75 g/m*3 15.8 C 0 km/h
772 06-06-2004 10:40:01 16 C 8.72 g/m*3 16 C 0 km/h
773 06-06-2004 10:52:01 15.7 C 8.7 g/m*3 15.7 C 0 km/h
774 06-06-2004 11:04:02 15.8 C 9.29 g/m*3 15.8 C 0 km/h
775 06-06-2004 11:16:02 16.9 C 9.21 g/m*3 16.9 C 0 km/h
Sensor: Nr:Datum:Temp:Abs-Feuchte:Windchill:Wind:
Aussen-T/F 776 06-06-2004 11:28:03 17.4 C 9.19 g/m*3 17.4 C 0 km/h
777 06-06-2004 11:40:02 18.1 C 9.12 g/m*3 18.1 C 0 km/h
778 06-06-2004 11:52:01 19.2 C 9.4 g/m*3 19.2 C 0 km/h
779 06-06-2004 12:04:03 19.4 C 9.51 g/m*3 19.4 C 0 km/h
780 06-06-2004 12:16:01 19.7 C 9 g/m*3 19.7 C 0 km/h
781 06-06-2004 12:28:01 20.8 C 9.23 g/m*3 20.8 C 0 km/h
782 06-06-2004 12:40:02 20.1 C 8.34 g/m*3 20.1 C 0 km/h
783 06-06-2004 12:52:02 20 C 8.12 g/m*3 20 C 0 km/h
784 06-06-2004 13:04:03 20.5 C 7.65 g/m*3 20.5 C 0 km/h
785 06-06-2004 13:16:01 20.9 C 7.29 g/m*3 20.9 C 0 km/h
786 06-06-2004 13:28:01 22.2 C 7.07 g/m*3 22.2 C 0 km/h
787 06-06-2004 13:40:01 21.9 C 7.91 g/m*3 21.9 C 0 km/h
788 06-06-2004 13:52:01 21.6 C 7.02 g/m*3 21.6 C 0 km/h
789 06-06-2004 14:04:01 22.6 C 7.43 g/m*3 22.6 C 0 km/h
790 06-06-2004 14:16:01 22.7 C 7.68 g/m*3 22.7 C 0 km/h
791 06-06-2004 14:28:01 22.1 C 7.42 g/m*3 22.1 C 0 km/h
792 06-06-2004 14:40:01 22.1 C 7.81 g/m*3 22.1 C 0 km/h
793 06-06-2004 14:52:01 22.8 C 7.72 g/m*3 22.8 C 0 km/h
794 06-06-2004 15:04:01 23 C 7.6 g/m*3 23 C 0 km/h
795 06-06-2004 15:16:01 22.9 C 8.17 g/m*3 22.9 C 0 km/h
796 06-06-2004 15:28:01 24.3 C 7.75 g/m*3 24.3 C 0 km/h
797 06-06-2004 15:40:01 24.9 C 7.55 g/m*3 24.9 C 0 km/h
798 06-06-2004 15:52:01 25.4 C 7.53 g/m*3 25.4 C 0 km/h
799 06-06-2004 16:04:01 25.1 C 7.87 g/m*3 25.1 C 0 km/h
800 06-06-2004 16:16:01 26.8 C 7.89 g/m*3 26.8 C 0 km/h
Sensor: Nr:Datum:Temp:Abs-Feuchte:Windchill:Wind:
Aussen-T/F 801 06-06-2004 16:28:01 26.4 C 7.72 g/m*3 26.4 C 0 km/h
802 06-06-2004 16:40:01 25.6 C 8.57 g/m*3 25.6 C 0 km/h
803 06-06-2004 16:52:01 26.7 C 7.59 g/m*3 26.7 C 0 km/h
804 06-06-2004 17:04:01 26.1 C 7.59 g/m*3 26.1 C 0 km/h
805 06-06-2004 17:16:01 24.6 C 6.98 g/m*3 24.6 C 0 km/h
806 06-06-2004 17:28:01 25.7 C 7.18 g/m*3 25.7 C 0 km/h
807 06-06-2004 17:40:01 24.8 C 7.28 g/m*3 24.8 C 0 km/h
808 06-06-2004 17:52:01 24.4 C 7.79 g/m*3 24.4 C 0 km/h
809 06-06-2004 18:04:01 24.4 C 7.34 g/m*3 24.4 C 0 km/h
810 06-06-2004 18:16:01 24 C 7.4 g/m*3 24 C 0 km/h
811 06-06-2004 18:28:01 24.8 C 7.51 g/m*3 24.8 C 0 km/h
812 06-06-2004 18:40:01 25 C 7.37 g/m*3 25 C 0 km/h
813 06-06-2004 18:52:01 25.2 C 7.68 g/m*3 25.2 C 0 km/h
814 06-06-2004 19:04:01 25 C 7.14 g/m*3 25 C 0 km/h
815 06-06-2004 19:16:01 24.9 C 7.32 g/m*3 24.9 C 0 km/h
816 06-06-2004 19:28:01 24.5 C 7.39 g/m*3 24.5 C 0 km/h
817 06-06-2004 19:40:01 25.1 C 7.64 g/m*3 25.1 C 0 km/h
818 06-06-2004 19:52:01 24.5 C 7.61 g/m*3 24.5 C 0 km/h
819 06-06-2004 20:04:01 24.5 C 9.4 g/m*3 24.5 C 0 km/h
820 06-06-2004 20:16:01 24.4 C 9.35 g/m*3 24.4 C 0 km/h
821 06-06-2004 20:28:01 24.3 C 9.07 g/m*3 24.3 C 0 km/h
822 06-06-2004 20:40:01 23.4 C 9.46 g/m*3 23.4 C 0 km/h
823 06-06-2004 20:52:01 22.4 C 9.33 g/m*3 22.4 C 0 km/h
824 06-06-2004 21:04:01 21 C 9.53 g/m*3 21 C 0 km/h
825 06-06-2004 21:16:01 20.2 C 9.27 g/m*3 20.2 C 0 km/h
Sensor: Nr:Datum:Temp:Abs-Feuchte:Windchill:Wind:
Aussen-T/F 826 06-06-2004 21:28:01 19.3 C 9.29 g/m*3 19.3 C 0 km/h
827 06-06-2004 21:40:01 18.8 C 9.18 g/m*3 18.8 C 0 km/h
828 06-06-2004 21:52:01 18.5 C 9.33 g/m*3 18.5 C 0 km/h
829 06-06-2004 22:04:01 18.3 C 8.76 g/m*3 18.3 C 0 km/h
830 06-06-2004 22:16:01 17.9 C 9.01 g/m*3 17.9 C 0 km/h
831 06-06-2004 22:28:01 17.5 C 8.95 g/m*3 17.5 C 0 km/h
832 06-06-2004 22:40:01 17.3 C 8.99 g/m*3 17.3 C 0 km/h
833 06-06-2004 22:52:01 17 C 8.83 g/m*3 17 C 0 km/h
834 06-06-2004 23:04:01 16.6 C 9.04 g/m*3 16.6 C 0 km/h
835 06-06-2004 23:16:01 16.3 C 9.02 g/m*3 16.3 C 0 km/h
836 06-06-2004 23:28:01 15.9 C 9.07 g/m*3 15.9 C 0 km/h
837 06-06-2004 23:40:01 15.8 C 9.02 g/m*3 15.8 C 0 km/h
838 06-06-2004 23:52:01 15.4 C 8.93 g/m*3 15.4 C 0 km/h

Legende:
   Min
   Max


Maximal/Minimal-Werte vom 31.05.2004 - 06.06.2004

Sensor Min Max Avg
Temp
(Aussen-T/F)
8.8 °C
06-06-2004  04:52:01
26.8 °C
06-06-2004  16:16:01
15.46 °C
Abs-Feuchte
(Aussen-T/F)
6.43 g/m*3
31-05-2004  17:44:01
13.72 g/m*3
02-06-2004  16:00:02
9.44 g/m*3
Windchill
(Aussen-T/F)
8.8 C
06-06-2004  04:52:01
26.8 C
06-06-2004  16:16:01
15.44 C

Die Daten stammen von einer Davis Vantage Pro 2 Wetter-Station und werden unter Linux mit der Software wview2wettercgi und aufbereitet. Alle Angaben erfolgen ohne Gewähr für ihre Vollständigkeit oder Richtigkeit.
Kontakt: Rainer Krienke krienke@uni-koblenz.de . Meine Webseiten an der Uni Koblenz oder privat.
Version: $Revision: 0.78 $